Kempton, North Dakota
Current Conditions -  °F | °C
As of 1:58 AM on Thursday 27 Nov 2014 (Local Time) from KRDR Reporting Station
Clear Clear  
Wind Chill: -14°   Ceiling: Unl
Heat Index: -14°   Visibility: 10mi
Dew Point: -19°   Wind: 2mph
Humidity: 77%   Direction: 240°WSW
Pressure: 30.55"   Gusts: NA
Location:  47.7445°N, 97.5815°W
Report Text: KRDR 270758Z AUTO 24002KT 10SM CLR M25/M28 A3055 RMK AO2 SLP380 T12551285
Loading
Personal Weather Stations






























Interactive Weather Map New forecast layout! Learn more

10-Day Weather Forecast

Advertisements
Track Severe Weather on mobile